Altus, Oklahoma
Current Conditions -  °F | °C
As of 10:58 PM on Wednesday 17 Dec 2014 (Local Time) from KLTS Reporting Station
Haze Haze  
Wind Chill:   Ceiling: 300
Heat Index:   Visibility: 4mi
Dew Point:   Wind: 9mph
Humidity: 100%   Direction: 130°SE
Pressure: 30.11"   Gusts: NA
Location:  34.64°N, 99.33°W
Report Text: KLTS 180458Z 13008KT 4SM BR OVC003 04/04 A3011 RMK AO2A SLP202 T00410041 $
Loading
Personal Weather Stations






























Interactive Weather Map New forecast layout! Learn more

10-Day Weather Forecast

Advertisements
Track Severe Weather on mobile